Time;durP1;ratioP1;P1;durP2;ratioP2;P2;SDS_P1;SDS_P2;PMS_P1;PMS_P2;Temp;Humidity;BMP_temperature;BMP_pressure;BME280_temperature;BME280_humidity;BME280_pressure;Samples;Min_cycle;Max_cycle;Signal;HPM_P1;HPM_P2
2023/04/07 00:02:02;;;;;;;1.77;1.67;;;;;;;;;;5099230;28;20211;-61
2023/04/07 00:04:30;;;;;;;1.85;1.75;;;;;;;;;;5099649;28;20208;-61
2023/04/07 00:06:57;;;;;;;1.67;1.58;;;;;;;;;;5103610;28;20195;-61
2023/04/07 00:09:24;;;;;;;1.63;1.52;;;;;;;;;;5119583;28;20213;-61
2023/04/07 00:11:52;;;;;;;1.90;1.80;;;;;;;;;;5119769;28;20228;-61
2023/04/07 00:14:21;;;;;;;1.80;1.70;;;;;;;;;;5119843;28;20478;-61
2023/04/07 00:16:48;;;;;;;1.70;1.60;;;;;;;;;;5116853;28;21874;-61
2023/04/07 00:19:16;;;;;;;1.75;1.65;;;;;;;;;;5099041;28;20306;-61
2023/04/07 00:21:43;;;;;;;2.00;1.90;;;;;;;;;;5099013;28;20227;-61
2023/04/07 00:24:11;;;;;;;1.88;1.77;;;;;;;;;;5098957;28;20204;-61
2023/04/07 00:26:38;;;;;;;1.60;1.50;;;;;;;;;;5099391;28;20203;-61
2023/04/07 00:29:06;;;;;;;1.70;1.60;;;;;;;;;;5118966;28;20233;-61
2023/04/07 00:31:35;;;;;;;1.75;1.65;;;;;;;;;;5119094;28;20199;-61
2023/04/07 00:34:02;;;;;;;1.92;1.83;;;;;;;;;;5119509;28;20203;-61
2023/04/07 00:36:30;;;;;;;1.60;1.50;;;;;;;;;;5119303;28;20203;-61
2023/04/07 00:38:57;;;;;;;1.83;1.73;;;;;;;;;;5118642;28;20206;-61
2023/04/07 00:41:25;;;;;;;2.00;1.90;;;;;;;;;;5118795;28;20329;-61
2023/04/07 00:43:52;;;;;;;1.88;1.77;;;;;;;;;;5118909;28;20290;-61
2023/04/07 00:46:21;;;;;;;1.80;1.70;;;;;;;;;;5119313;28;20243;-61
2023/04/07 00:48:50;;;;;;;2.03;1.83;;;;;;;;;;5099661;28;20199;-60
2023/04/07 00:51:17;;;;;;;2.10;2.00;;;;;;;;;;5098693;28;20520;-60
2023/04/07 00:53:45;;;;;;;1.73;1.63;;;;;;;;;;5097974;28;20215;-60
2023/04/07 00:56:12;;;;;;;2.00;1.90;;;;;;;;;;5098044;28;20207;-60
2023/04/07 00:58:40;;;;;;;1.88;1.77;;;;;;;;;;5112725;28;20191;-60
2023/04/07 01:01:09;;;;;;;2.00;1.90;;;;;;;;;;5118943;28;20258;-60
2023/04/07 01:03:40;;;;;;;1.90;1.80;;;;;;;;;;5118826;28;20306;-60
2023/04/07 01:06:09;;;;;;;2.28;2.08;;;;;;;;;;5118693;28;20203;-60
2023/04/07 01:08:43;;;;;;;1.80;1.70;;;;;;;;;;5117557;28;20290;-60
2023/04/07 01:11:13;;;;;;;1.85;1.75;;;;;;;;;;5118414;28;20190;-60
2023/04/07 01:13:43;;;;;;;2.10;2.00;;;;;;;;;;5116584;28;20579;-60
2023/04/07 01:16:13;;;;;;;1.95;1.85;;;;;;;;;;5118361;28;20209;-60
2023/04/07 01:18:41;;;;;;;2.13;2.03;;;;;;;;;;5104712;28;20493;-60
2023/04/07 01:21:11;;;;;;;2.00;1.90;;;;;;;;;;5097948;28;20274;-60
2023/04/07 01:23:49;;;;;;;2.00;1.90;;;;;;;;;;5097874;28;20302;-61
2023/04/07 01:26:21;;;;;;;2.13;2.03;;;;;;;;;;5097997;28;20286;-61
2023/04/07 01:29:12;;;;;;;1.90;1.80;;;;;;;;;;5111528;28;20297;-61
2023/04/07 01:31:42;;;;;;;2.00;1.90;;;;;;;;;;5097976;28;20541;-61
2023/04/07 01:34:11;;;;;;;1.92;1.83;;;;;;;;;;5118557;28;20202;-60
2023/04/07 01:36:38;;;;;;;1.80;1.70;;;;;;;;;;5118079;28;20210;-60
2023/04/07 01:39:07;;;;;;;2.22;2.03;;;;;;;;;;5100874;28;20298;-60
2023/04/07 01:41:34;;;;;;;1.92;1.83;;;;;;;;;;5097770;28;20314;-60
2023/04/07 01:44:02;;;;;;;2.05;1.95;;;;;;;;;;5097961;28;20298;-60
2023/04/07 01:46:30;;;;;;;2.00;1.90;;;;;;;;;;5097470;28;20299;-60
2023/04/07 01:48:59;;;;;;;2.13;1.92;;;;;;;;;;5112647;28;20198;-60
2023/04/07 01:51:28;;;;;;;1.80;1.70;;;;;;;;;;5118247;28;20210;-60
2023/04/07 01:53:58;;;;;;;1.95;1.85;;;;;;;;;;5117921;28;20202;-60
2023/04/07 01:56:25;;;;;;;2.30;1.92;;;;;;;;;;5117795;28;20625;-60
2023/04/07 01:58:53;;;;;;;2.30;2.20;;;;;;;;;;5103048;28;20199;-60
2023/04/07 02:01:20;;;;;;;2.25;2.08;;;;;;;;;;5097648;28;20223;-60
2023/04/07 02:03:52;;;;;;;1.95;1.85;;;;;;;;;;5097399;28;20216;-60
2023/04/07 02:06:23;;;;;;;2.33;2.13;;;;;;;;;;5096274;28;20234;-61
2023/04/07 02:08:53;;;;;;;2.20;2.10;;;;;;;;;;5110429;28;20281;-61
2023/04/07 02:11:21;;;;;;;2.25;2.08;;;;;;;;;;5117730;28;20294;-61
2023/04/07 02:13:51;;;;;;;2.10;2.00;;;;;;;;;;5117769;28;20286;-61
2023/04/07 02:16:19;;;;;;;2.10;2.00;;;;;;;;;;5117853;28;20289;-61
2023/04/07 02:18:47;;;;;;;2.33;2.15;;;;;;;;;;5104475;28;20279;-61
2023/04/07 02:21:15;;;;;;;2.30;2.10;;;;;;;;;;5097401;28;20238;-61
2023/04/07 02:23:44;;;;;;;2.22;2.13;;;;;;;;;;5097391;28;20203;-61
2023/04/07 02:26:11;;;;;;;2.20;2.00;;;;;;;;;;5097511;28;20233;-61
2023/04/07 02:28:39;;;;;;;2.20;2.10;;;;;;;;;;5108764;28;20285;-61
2023/04/07 02:31:06;;;;;;;2.40;2.20;;;;;;;;;;5117810;28;20260;-61
2023/04/07 02:33:33;;;;;;;2.15;2.05;;;;;;;;;;5116560;28;20195;-61
2023/04/07 02:36:01;;;;;;;2.30;2.10;;;;;;;;;;5117493;28;20217;-61
2023/04/07 02:38:29;;;;;;;2.33;2.13;;;;;;;;;;5117359;28;20215;-61
2023/04/07 02:40:58;;;;;;;2.08;1.98;;;;;;;;;;5117339;28;20226;-60
2023/04/07 02:43:25;;;;;;;2.10;2.00;;;;;;;;;;5108336;28;20725;-60
2023/04/07 02:45:53;;;;;;;2.65;2.45;;;;;;;;;;5096571;28;20587;-60
2023/04/07 02:48:21;;;;;;;2.70;2.25;;;;;;;;;;5097276;28;20567;-60
2023/04/07 02:50:49;;;;;;;1.90;1.80;;;;;;;;;;5097101;28;20602;-60
2023/04/07 02:53:16;;;;;;;1.95;1.85;;;;;;;;;;5104063;28;20481;-60
2023/04/07 02:55:43;;;;;;;3.13;2.25;;;;;;;;;;5117920;28;20220;-61
2023/04/07 02:58:12;;;;;;;2.58;2.38;;;;;;;;;;5117328;28;20317;-61
2023/04/07 03:00:40;;;;;;;2.20;2.05;;;;;;;;;;5117852;28;20273;-61
2023/04/07 03:03:07;;;;;;;2.25;2.05;;;;;;;;;;5115558;28;20560;-60
2023/04/07 03:05:36;;;;;;;2.50;2.30;;;;;;;;;;5117472;28;20306;-60
2023/04/07 03:08:03;;;;;;;2.60;2.40;;;;;;;;;;5117345;28;20330;-61
2023/04/07 03:10:31;;;;;;;2.10;2.00;;;;;;;;;;5117151;28;20293;-61
2023/04/07 03:12:58;;;;;;;2.25;2.15;;;;;;;;;;5112673;28;20200;-61
2023/04/07 03:15:28;;;;;;;2.50;2.35;;;;;;;;;;5096836;28;20231;-61
2023/04/07 03:17:55;;;;;;;2.33;2.22;;;;;;;;;;5099078;28;20286;-61
2023/04/07 03:20:22;;;;;;;2.53;2.33;;;;;;;;;;5100396;28;20298;-61
2023/04/07 03:22:50;;;;;;;2.33;2.20;;;;;;;;;;5102411;28;20214;-61
2023/04/07 03:25:17;;;;;;;2.80;2.60;;;;;;;;;;5120340;28;20210;-61
2023/04/07 03:27:45;;;;;;;2.38;2.17;;;;;;;;;;5120345;28;20214;-61
2023/04/07 03:30:13;;;;;;;2.33;2.22;;;;;;;;;;5120902;28;20202;-61
2023/04/07 03:32:42;;;;;;;2.40;2.20;;;;;;;;;;5119768;28;20199;-61
2023/04/07 03:35:09;;;;;;;2.67;2.47;;;;;;;;;;5100101;28;20587;-61
2023/04/07 03:37:37;;;;;;;2.50;2.30;;;;;;;;;;5099966;28;20286;-61
2023/04/07 03:40:04;;;;;;;2.47;2.28;;;;;;;;;;5100089;28;20199;-61
2023/04/07 03:42:32;;;;;;;2.47;2.28;;;;;;;;;;5100111;28;20227;-61
2023/04/07 03:45:00;;;;;;;2.63;2.42;;;;;;;;;;5099895;28;20293;-61
2023/04/07 03:47:27;;;;;;;2.30;2.20;;;;;;;;;;5099908;28;20618;-61
2023/04/07 03:49:56;;;;;;;2.35;2.15;;;;;;;;;;5099872;28;20204;-61
2023/04/07 03:52:23;;;;;;;2.45;2.25;;;;;;;;;;5099789;28;20200;-61
2023/04/07 03:54:51;;;;;;;2.00;1.90;;;;;;;;;;5099904;28;20282;-61
2023/04/07 03:57:18;;;;;;;2.45;2.33;;;;;;;;;;5099599;28;20231;-61
2023/04/07 03:59:49;;;;;;;2.60;2.40;;;;;;;;;;5099420;28;20303;-61
2023/04/07 04:02:17;;;;;;;2.20;2.10;;;;;;;;;;5099118;28;20334;-61
2023/04/07 04:04:44;;;;;;;2.50;2.30;;;;;;;;;;5099590;28;20203;-61
2023/04/07 04:07:13;;;;;;;2.90;2.70;;;;;;;;;;5099546;28;20208;-61
2023/04/07 04:09:40;;;;;;;2.35;2.22;;;;;;;;;;5099215;28;20210;-61
2023/04/07 04:12:08;;;;;;;2.33;2.20;;;;;;;;;;5098959;28;20207;-61
2023/04/07 04:14:35;;;;;;;2.60;2.40;;;;;;;;;;5114796;28;20210;-61
2023/04/07 04:17:02;;;;;;;2.67;2.47;;;;;;;;;;5119841;28;20203;-61
2023/04/07 04:19:30;;;;;;;2.72;2.53;;;;;;;;;;5119553;28;20214;-61
2023/04/07 04:21:57;;;;;;;2.38;2.20;;;;;;;;;;5119594;28;20227;-61
2023/04/07 04:24:26;;;;;;;2.72;2.53;;;;;;;;;;5104590;28;20210;-61
2023/04/07 04:26:53;;;;;;;3.00;2.80;;;;;;;;;;5099481;28;20203;-61
2023/04/07 04:29:20;;;;;;;2.60;2.40;;;;;;;;;;5098280;28;20211;-61
2023/04/07 04:31:48;;;;;;;2.35;2.15;;;;;;;;;;5098814;28;20576;-61
2023/04/07 04:34:16;;;;;;;2.78;2.58;;;;;;;;;;5112086;28;20199;-61
2023/04/07 04:36:43;;;;;;;2.58;2.38;;;;;;;;;;5119433;28;20203;-61
2023/04/07 04:39:11;;;;;;;2.60;2.40;;;;;;;;;;5119921;28;20246;-61
2023/04/07 04:41:39;;;;;;;2.72;2.53;;;;;;;;;;5118982;28;20253;-61
2023/04/07 04:44:07;;;;;;;2.38;2.17;;;;;;;;;;5107696;28;20204;-61
2023/04/07 04:46:34;;;;;;;2.80;2.60;;;;;;;;;;5098721;28;20214;-61
2023/04/07 04:49:01;;;;;;;2.75;2.55;;;;;;;;;;5099085;28;20204;-61
2023/04/07 04:51:29;;;;;;;2.67;2.47;;;;;;;;;;5098629;28;20214;-61
2023/04/07 04:53:57;;;;;;;2.90;2.70;;;;;;;;;;5107922;28;20256;-61
2023/04/07 04:56:24;;;;;;;2.67;2.47;;;;;;;;;;5118414;28;20199;-61
2023/04/07 04:58:53;;;;;;;2.63;2.42;;;;;;;;;;5119083;28;20593;-61
2023/04/07 05:01:20;;;;;;;4.00;2.50;;;;;;;;;;5118917;28;20223;-61
2023/04/07 05:03:47;;;;;;;2.58;2.38;;;;;;;;;;5110524;28;20210;-61
2023/04/07 05:06:15;;;;;;;2.72;2.53;;;;;;;;;;5098710;28;20205;-61
2023/04/07 05:08:42;;;;;;;2.55;2.35;;;;;;;;;;5098304;28;20203;-61
2023/04/07 05:11:10;;;;;;;4.07;2.78;;;;;;;;;;5098194;28;20230;-61
2023/04/07 05:13:37;;;;;;;15.00;3.28;;;;;;;;;;5104498;28;20203;-58
2023/04/07 05:16:06;;;;;;;2.78;2.35;;;;;;;;;;5118641;28;20206;-61
2023/04/07 05:18:34;;;;;;;2.40;2.20;;;;;;;;;;5118215;28;20617;-61
2023/04/07 05:21:01;;;;;;;2.78;2.58;;;;;;;;;;5118251;28;20210;-61
2023/04/07 05:23:29;;;;;;;2.55;2.35;;;;;;;;;;5113817;28;20230;-61
2023/04/07 05:25:56;;;;;;;2.92;2.72;;;;;;;;;;5097964;28;20195;-61
2023/04/07 05:28:24;;;;;;;2.55;2.35;;;;;;;;;;5097518;28;20214;-61
2023/04/07 05:30:51;;;;;;;3.17;2.88;;;;;;;;;;5097710;28;20559;-60
2023/04/07 05:33:20;;;;;;;2.80;2.60;;;;;;;;;;5100830;28;20195;-61
2023/04/07 05:35:47;;;;;;;2.80;2.60;;;;;;;;;;5118554;28;20214;-60
2023/04/07 05:38:15;;;;;;;2.72;2.53;;;;;;;;;;5117867;28;20202;-60
2023/04/07 05:40:43;;;;;;;2.67;2.47;;;;;;;;;;5118307;28;20221;-60
2023/04/07 05:43:10;;;;;;;3.00;2.67;;;;;;;;;;5117256;28;20227;-60
2023/04/07 05:45:38;;;;;;;2.83;2.60;;;;;;;;;;5117393;28;20218;-60
2023/04/07 05:48:05;;;;;;;2.40;2.20;;;;;;;;;;5118022;28;20203;-60
2023/04/07 05:50:34;;;;;;;2.50;2.30;;;;;;;;;;5118119;28;20210;-60
2023/04/07 05:53:01;;;;;;;2.63;2.40;;;;;;;;;;5118492;28;20202;-60
2023/04/07 05:55:29;;;;;;;2.83;2.50;;;;;;;;;;5116048;28;20211;-60
2023/04/07 05:57:57;;;;;;;2.78;2.50;;;;;;;;;;5118022;28;20307;-60
2023/04/07 06:00:24;;;;;;;3.10;2.80;;;;;;;;;;5118043;28;20234;-60
2023/04/07 06:02:52;;;;;;;2.90;2.70;;;;;;;;;;5117565;28;20233;-60
2023/04/07 06:05:20;;;;;;;2.90;2.70;;;;;;;;;;5103648;28;20604;-60
2023/04/07 06:07:48;;;;;;;2.67;2.47;;;;;;;;;;5097535;28;20582;-60
2023/04/07 06:10:16;;;;;;;2.75;2.55;;;;;;;;;;5097178;28;20212;-60
2023/04/07 06:12:43;;;;;;;2.50;2.30;;;;;;;;;;5097290;28;20208;-60
2023/04/07 06:15:11;;;;;;;2.50;2.33;;;;;;;;;;5097108;28;20636;-60
2023/04/07 06:17:38;;;;;;;2.55;2.35;;;;;;;;;;5096659;28;20212;-60
2023/04/07 06:20:06;;;;;;;2.28;2.17;;;;;;;;;;5097127;28;20595;-60
2023/04/07 06:22:33;;;;;;;2.97;2.75;;;;;;;;;;5097009;28;20231;-61
2023/04/07 06:25:03;;;;;;;2.60;2.40;;;;;;;;;;5096777;28;20210;-61
2023/04/07 06:27:31;;;;;;;3.05;2.72;;;;;;;;;;5097287;28;20831;-60
2023/04/07 06:29:59;;;;;;;2.20;2.10;;;;;;;;;;5105717;28;20199;-60
2023/04/07 06:32:27;;;;;;;2.85;2.65;;;;;;;;;;5117349;28;20207;-60
2023/04/07 06:34:55;;;;;;;2.53;2.33;;;;;;;;;;5117643;28;20263;-60
2023/04/07 06:37:23;;;;;;;2.80;2.60;;;;;;;;;;5117337;28;20195;-60
2023/04/07 06:39:50;;;;;;;3.00;2.80;;;;;;;;;;5117274;28;20230;-60
2023/04/07 06:42:19;;;;;;;2.92;2.72;;;;;;;;;;5117319;28;20524;-60
2023/04/07 06:44:47;;;;;;;2.80;2.60;;;;;;;;;;5117403;28;20195;-60
2023/04/07 06:47:14;;;;;;;2.42;2.22;;;;;;;;;;5117471;28;20203;-60
2023/04/07 06:49:41;;;;;;;2.80;2.60;;;;;;;;;;5117033;28;20214;-60
2023/04/07 06:52:09;;;;;;;2.85;2.65;;;;;;;;;;5118807;28;20199;-60
2023/04/07 06:54:36;;;;;;;2.88;2.67;;;;;;;;;;5120955;28;20211;-60
2023/04/07 06:57:03;;;;;;;3.08;2.88;;;;;;;;;;5120893;28;20237;-61
2023/04/07 06:59:32;;;;;;;3.17;2.90;;;;;;;;;;5120787;28;20241;-60
2023/04/07 07:01:59;;;;;;;2.90;2.60;;;;;;;;;;5117346;28;20216;-61
2023/04/07 07:04:27;;;;;;;3.88;2.88;;;;;;;;;;5099755;28;20585;-61
2023/04/07 07:06:55;;;;;;;2.97;2.78;;;;;;;;;;5100784;28;20471;-61
2023/04/07 07:09:23;;;;;;;3.30;3.00;;;;;;;;;;5100054;28;20231;-61
2023/04/07 07:11:50;;;;;;;3.08;2.88;;;;;;;;;;5100096;28;20200;-61
2023/04/07 07:14:17;;;;;;;2.60;2.40;;;;;;;;;;5100055;28;20211;-61
2023/04/07 07:16:46;;;;;;;3.10;2.80;;;;;;;;;;5100184;28;20215;-61
2023/04/07 07:19:13;;;;;;;4.55;3.83;;;;;;;;;;5100336;28;20211;-61
2023/04/07 07:21:41;;;;;;;4.70;3.50;;;;;;;;;;5099759;28;20239;-61
2023/04/07 07:24:08;;;;;;;5.20;3.60;;;;;;;;;;5100010;28;20219;-61
2023/04/07 07:26:36;;;;;;;4.05;3.65;;;;;;;;;;5100989;28;20484;-61
2023/04/07 07:29:03;;;;;;;6.55;5.47;;;;;;;;;;5100127;28;20226;-61
2023/04/07 07:31:31;;;;;;;9.23;8.23;;;;;;;;;;5100087;28;20213;-61
2023/04/07 07:33:59;;;;;;;9.75;8.75;;;;;;;;;;5099900;28;20252;-61
2023/04/07 07:36:27;;;;;;;8.95;8.05;;;;;;;;;;5099708;28;20203;-61
2023/04/07 07:38:54;;;;;;;8.93;8.02;;;;;;;;;;5099817;28;20599;-61
2023/04/07 07:41:22;;;;;;;8.10;7.30;;;;;;;;;;5099650;28;20466;-61
2023/04/07 07:43:49;;;;;;;8.68;7.78;;;;;;;;;;5099065;28;20231;-61
2023/04/07 07:46:16;;;;;;;8.55;7.65;;;;;;;;;;5099502;28;20211;-61
2023/04/07 07:48:45;;;;;;;9.20;8.30;;;;;;;;;;5099294;28;20218;-61
2023/04/07 07:51:14;;;;;;;9.57;7.72;;;;;;;;;;5099949;28;20265;-61
2023/04/07 07:53:41;;;;;;;8.07;7.32;;;;;;;;;;5099513;28;20199;-61
2023/04/07 07:56:09;;;;;;;8.10;7.40;;;;;;;;;;5098831;28;20204;-61
2023/04/07 07:58:37;;;;;;;7.75;6.95;;;;;;;;;;5078631;28;20234;-61
2023/04/07 08:01:04;;;;;;;8.05;7.15;;;;;;;;;;5078696;28;20204;-61
2023/04/07 08:03:31;;;;;;;8.18;7.28;;;;;;;;;;5077567;28;20235;-61
2023/04/07 08:05:59;;;;;;;8.20;7.50;;;;;;;;;;5078661;28;20236;-61
2023/04/07 08:08:28;;;;;;;7.97;7.18;;;;;;;;;;5078503;28;20243;-61
2023/04/07 08:10:55;;;;;;;7.75;7.00;;;;;;;;;;5078661;28;20208;-61
2023/04/07 08:13:23;;;;;;;8.20;7.40;;;;;;;;;;5078101;28;20208;-61
2023/04/07 08:15:50;;;;;;;10.13;9.07;;;;;;;;;;5078689;28;20204;-61
2023/04/07 08:18:17;;;;;;;11.88;10.70;;;;;;;;;;5078607;28;20204;-61
2023/04/07 08:20:45;;;;;;;10.73;9.60;;;;;;;;;;5078282;28;20204;-61
2023/04/07 08:23:12;;;;;;;10.48;9.48;;;;;;;;;;5078303;28;20232;-61
2023/04/07 08:25:41;;;;;;;10.93;9.95;;;;;;;;;;5078295;28;20626;-61
2023/04/07 08:28:08;;;;;;;12.50;11.25;;;;;;;;;;5078531;28;20208;-61
2023/04/07 08:30:36;;;;;;;12.23;10.95;;;;;;;;;;5078133;28;20204;-61
2023/04/07 08:33:07;;;;;;;10.80;9.77;;;;;;;;;;5078054;28;20261;-61
2023/04/07 08:35:34;;;;;;;12.90;10.63;;;;;;;;;;5077568;28;20215;-61
2023/04/07 08:38:02;;;;;;;11.57;10.38;;;;;;;;;;5078133;28;20204;-61
2023/04/07 08:40:29;;;;;;;13.15;10.27;;;;;;;;;;5078395;28;20257;-61
2023/04/07 08:42:59;;;;;;;11.88;10.68;;;;;;;;;;5078277;28;20594;-61
2023/04/07 08:45:27;;;;;;;13.65;12.45;;;;;;;;;;5078268;28;20746;-61
2023/04/07 08:47:56;;;;;;;16.88;15.23;;;;;;;;;;5077214;28;20204;-61
2023/04/07 08:50:27;;;;;;;21.88;19.98;;;;;;;;;;5064237;28;20203;-61
2023/04/07 08:52:55;;;;;;;28.80;26.33;;;;;;;;;;5056919;28;20232;-61
2023/04/07 08:55:22;;;;;;;36.53;33.63;;;;;;;;;;5057258;28;20205;-61
2023/04/07 08:57:50;;;;;;;42.00;38.67;;;;;;;;;;5070806;28;20250;-61
2023/04/07 09:00:19;;;;;;;48.20;44.20;;;;;;;;;;5077390;28;20274;-61
2023/04/07 09:02:48;;;;;;;54.17;50.22;;;;;;;;;;5077382;28;20507;-61
2023/04/07 09:05:15;;;;;;;57.33;52.92;;;;;;;;;;5078005;28;20689;-61
2023/04/07 09:07:43;;;;;;;58.80;54.38;;;;;;;;;;5091801;28;20210;-61
2023/04/07 09:10:10;;;;;;;62.70;58.13;;;;;;;;;;5097450;28;20569;-61
2023/04/07 09:12:38;;;;;;;62.67;57.90;;;;;;;;;;5097476;28;20199;-61
2023/04/07 09:15:07;;;;;;;63.80;59.10;;;;;;;;;;5096133;28;20214;-61
2023/04/07 09:17:36;;;;;;;62.15;57.65;;;;;;;;;;5097652;28;20592;-61
2023/04/07 09:20:04;;;;;;;58.90;54.65;;;;;;;;;;5097187;28;20210;-61
2023/04/07 09:22:38;;;;;;;61.33;57.03;;;;;;;;;;5097347;28;20203;-61
2023/04/07 09:25:15;;;;;;;57.17;53.08;;;;;;;;;;5096936;28;20591;-61
2023/04/07 09:27:54;;;;;;;53.95;50.15;;;;;;;;;;5114777;28;20213;-61
2023/04/07 09:30:22;;;;;;;52.72;48.95;;;;;;;;;;5117473;28;20228;-61
2023/04/07 09:32:51;;;;;;;49.55;46.15;;;;;;;;;;5117500;28;20199;-61
2023/04/07 09:35:18;;;;;;;50.95;47.35;;;;;;;;;;5117386;28;20241;-61
2023/04/07 09:37:47;;;;;;;46.58;43.42;;;;;;;;;;5117102;28;20214;-61
2023/04/07 09:40:27;;;;;;;44.08;41.05;;;;;;;;;;5117167;28;20268;-61
2023/04/07 09:42:54;;;;;;;41.85;38.95;;;;;;;;;;5117100;28;20262;-61
2023/04/07 09:45:25;;;;;;;39.95;37.25;;;;;;;;;;5116689;28;20210;-61
2023/04/07 09:47:54;;;;;;;38.30;35.78;;;;;;;;;;5112397;28;20219;-61
2023/04/07 09:50:34;;;;;;;35.63;33.13;;;;;;;;;;5096254;28;20206;-61
2023/04/07 09:53:03;;;;;;;33.08;30.90;;;;;;;;;;5096626;28;20510;-61
2023/04/07 09:55:31;;;;;;;31.60;29.50;;;;;;;;;;5096562;28;20214;-61
2023/04/07 09:57:58;;;;;;;30.50;28.40;;;;;;;;;;5096172;28;20228;-61
2023/04/07 10:00:26;;;;;;;29.35;27.40;;;;;;;;;;5096998;28;20248;-61
2023/04/07 10:02:55;;;;;;;27.85;25.95;;;;;;;;;;5096247;28;20330;-61
2023/04/07 10:05:22;;;;;;;25.85;24.05;;;;;;;;;;5096083;28;20587;-61
2023/04/07 10:07:50;;;;;;;24.15;22.55;;;;;;;;;;5095946;28;20211;-61
2023/04/07 10:10:17;;;;;;;22.67;21.10;;;;;;;;;;5096338;28;20203;-61
2023/04/07 10:12:45;;;;;;;21.58;20.17;;;;;;;;;;5109255;28;20199;-61
2023/04/07 10:15:14;;;;;;;20.65;19.25;;;;;;;;;;5116609;28;20203;-61
2023/04/07 10:17:46;;;;;;;19.52;18.23;;;;;;;;;;5116030;28;20209;-61
2023/04/07 10:20:19;;;;;;;18.67;17.48;;;;;;;;;;5116192;28;20230;-61
2023/04/07 10:22:47;;;;;;;17.00;15.90;;;;;;;;;;5116791;28;20214;-61
2023/04/07 10:25:15;;;;;;;16.33;15.32;;;;;;;;;;5116670;28;20598;-61
2023/04/07 10:27:49;;;;;;;15.32;14.43;;;;;;;;;;5119012;28;20195;-61
2023/04/07 10:30:17;;;;;;;14.95;13.88;;;;;;;;;;5120618;28;20213;-61
2023/04/07 10:32:48;;;;;;;14.45;13.45;;;;;;;;;;5120962;28;20229;-61
2023/04/07 10:35:17;;;;;;;13.95;12.95;;;;;;;;;;5120170;28;20290;-61
2023/04/07 10:37:59;;;;;;;13.13;12.32;;;;;;;;;;5116760;28;20205;-61
2023/04/07 10:40:30;;;;;;;12.18;11.38;;;;;;;;;;5104383;28;20206;-61
2023/04/07 10:42:57;;;;;;;12.45;11.57;;;;;;;;;;5100114;28;20671;-61
2023/04/07 10:45:40;;;;;;;11.43;10.63;;;;;;;;;;5099740;28;20211;-61
2023/04/07 10:48:11;;;;;;;10.95;10.15;;;;;;;;;;5083125;28;20576;-61
2023/04/07 10:50:41;;;;;;;10.18;9.48;;;;;;;;;;5100101;28;20560;-61
2023/04/07 10:53:09;;;;;;;10.20;9.50;;;;;;;;;;5100489;28;20199;-61
2023/04/07 10:55:37;;;;;;;9.15;8.55;;;;;;;;;;5099708;28;20211;-61
2023/04/07 10:58:15;;;;;;;9.00;8.40;;;;;;;;;;5099427;28;20242;-61
2023/04/07 11:00:43;;;;;;;8.50;7.80;;;;;;;;;;5102532;28;20202;-61
2023/04/07 11:03:12;;;;;;;7.70;7.20;;;;;;;;;;5120027;28;20238;-61
2023/04/07 11:05:41;;;;;;;8.10;7.40;;;;;;;;;;5120162;28;20207;-61
2023/04/07 11:08:09;;;;;;;7.35;6.85;;;;;;;;;;5120154;28;20223;-61
2023/04/07 11:10:36;;;;;;;7.38;6.75;;;;;;;;;;5119833;28;20203;-61
2023/04/07 11:13:06;;;;;;;7.10;6.55;;;;;;;;;;5119801;28;20214;-61
2023/04/07 11:15:34;;;;;;;6.72;6.25;;;;;;;;;;5120524;28;20504;-61
2023/04/07 11:18:08;;;;;;;6.30;5.90;;;;;;;;;;5119686;28;20218;-61
2023/04/07 11:20:47;;;;;;;6.72;6.13;;;;;;;;;;5118938;28;20618;-61
2023/04/07 11:23:15;;;;;;;6.53;6.03;;;;;;;;;;5119277;28;20214;-61
2023/04/07 11:25:43;;;;;;;6.10;5.60;;;;;;;;;;5118559;28;20572;-61
2023/04/07 11:28:12;;;;;;;6.80;6.30;;;;;;;;;;5106978;28;20316;-61
2023/04/07 11:30:40;;;;;;;7.80;7.20;;;;;;;;;;5098370;28;20627;-61
2023/04/07 11:33:08;;;;;;;7.47;6.88;;;;;;;;;;5099394;28;20203;-61
2023/04/07 11:35:36;;;;;;;7.00;6.50;;;;;;;;;;5098707;28;20812;-61
2023/04/07 11:38:05;;;;;;;6.43;5.93;;;;;;;;;;5098899;28;20211;-61
2023/04/07 11:40:33;;;;;;;6.60;6.00;;;;;;;;;;5098551;28;20582;-61
2023/04/07 11:43:01;;;;;;;6.53;5.90;;;;;;;;;;5097900;28;20215;-61
2023/04/07 11:45:28;;;;;;;6.65;5.97;;;;;;;;;;5097843;28;20231;-61
2023/04/07 11:47:55;;;;;;;5.97;5.47;;;;;;;;;;5098417;28;20265;-61
2023/04/07 11:50:39;;;;;;;5.78;5.38;;;;;;;;;;5097354;28;20638;-61
2023/04/07 11:53:10;;;;;;;7.68;5.20;;;;;;;;;;5097622;28;20207;-61
2023/04/07 11:55:37;;;;;;;5.85;5.30;;;;;;;;;;5101588;28;20196;-61
2023/04/07 11:58:09;;;;;;;5.32;4.90;;;;;;;;;;5099026;28;20231;-61
2023/04/07 12:00:37;;;;;;;5.47;5.07;;;;;;;;;;5097754;28;20607;-61
2023/04/07 12:03:13;;;;;;;5.57;5.07;;;;;;;;;;5098091;28;20235;-61
2023/04/07 12:05:43;;;;;;;5.20;4.80;;;;;;;;;;5097069;28;20204;-61
2023/04/07 12:08:14;;;;;;;4.90;4.45;;;;;;;;;;5097158;28;20215;-61
2023/04/07 12:10:41;;;;;;;5.03;4.45;;;;;;;;;;5097784;28;20246;-61
2023/04/07 12:13:08;;;;;;;4.88;4.38;;;;;;;;;;5097787;28;20204;-61
2023/04/07 12:15:36;;;;;;;4.65;4.25;;;;;;;;;;5097655;28;20207;-61
2023/04/07 12:18:04;;;;;;;5.00;4.60;;;;;;;;;;5097795;28;20224;-61
2023/04/07 12:20:32;;;;;;;4.45;4.05;;;;;;;;;;5095854;28;20215;-61
2023/04/07 12:22:59;;;;;;;4.53;4.20;;;;;;;;;;5110238;28;20207;-61
2023/04/07 12:25:29;;;;;;;4.43;4.13;;;;;;;;;;5117469;28;20215;-61
2023/04/07 12:27:56;;;;;;;4.60;4.20;;;;;;;;;;5117785;28;20217;-61
2023/04/07 12:30:23;;;;;;;4.00;3.70;;;;;;;;;;5117243;28;20211;-61
2023/04/07 12:32:50;;;;;;;4.28;3.90;;;;;;;;;;5117614;28;20615;-61
2023/04/07 12:35:18;;;;;;;4.15;3.80;;;;;;;;;;5118089;28;20191;-61
2023/04/07 12:37:46;;;;;;;4.40;3.97;;;;;;;;;;5118368;28;20210;-61
2023/04/07 12:40:14;;;;;;;3.92;3.47;;;;;;;;;;5117296;28;20226;-61
2023/04/07 12:42:43;;;;;;;3.85;3.55;;;;;;;;;;5116971;28;20203;-61
2023/04/07 12:45:11;;;;;;;3.58;3.28;;;;;;;;;;5117287;28;20621;-61
2023/04/07 12:47:38;;;;;;;4.03;3.80;;;;;;;;;;5117119;28;20203;-61
2023/04/07 12:50:06;;;;;;;3.60;3.30;;;;;;;;;;5102993;28;20831;-61
2023/04/07 12:52:33;;;;;;;4.30;3.88;;;;;;;;;;5096387;28;20265;-61
2023/04/07 12:55:01;;;;;;;3.70;3.42;;;;;;;;;;5096012;28;20203;-61
2023/04/07 12:57:28;;;;;;;3.45;3.22;;;;;;;;;;5095870;28;20227;-61
2023/04/07 12:59:56;;;;;;;3.65;3.35;;;;;;;;;;5096556;28;20211;-61
2023/04/07 13:02:24;;;;;;;3.60;3.30;;;;;;;;;;5095910;28;20208;-61
2023/04/07 13:04:51;;;;;;;3.40;3.20;;;;;;;;;;5096468;28;20223;-61
2023/04/07 13:07:20;;;;;;;3.50;3.25;;;;;;;;;;5096767;28;20600;-61
2023/04/07 13:09:48;;;;;;;3.30;3.10;;;;;;;;;;5114516;28;20202;-60
2023/04/07 13:12:15;;;;;;;3.35;3.13;;;;;;;;;;5115907;28;20590;-61
2023/04/07 13:14:43;;;;;;;3.20;3.00;;;;;;;;;;5116815;28;20199;-61
2023/04/07 13:17:12;;;;;;;3.03;2.80;;;;;;;;;;5116486;28;20622;-61
2023/04/07 13:19:40;;;;;;;3.40;3.17;;;;;;;;;;5115985;28;20218;-61
2023/04/07 13:22:07;;;;;;;3.35;3.15;;;;;;;;;;5115808;28;20263;-61
2023/04/07 13:24:35;;;;;;;3.10;2.80;;;;;;;;;;5115710;28;20231;-61
2023/04/07 13:27:03;;;;;;;3.10;2.90;;;;;;;;;;5116006;28;20213;-61
2023/04/07 13:29:31;;;;;;;3.17;2.85;;;;;;;;;;5115365;28;20210;-61
2023/04/07 13:32:05;;;;;;;3.05;2.80;;;;;;;;;;5116465;28;20225;-61
2023/04/07 13:34:34;;;;;;;3.00;2.80;;;;;;;;;;5109212;28;20195;-61
2023/04/07 13:37:02;;;;;;;2.72;2.53;;;;;;;;;;5095084;28;20331;-61
2023/04/07 13:39:29;;;;;;;2.70;2.50;;;;;;;;;;5094505;28;20258;-61
2023/04/07 13:41:57;;;;;;;2.97;2.78;;;;;;;;;;5094924;28;20250;-61
2023/04/07 13:44:25;;;;;;;3.10;2.90;;;;;;;;;;5095821;28;20323;-61
2023/04/07 13:46:52;;;;;;;3.10;2.90;;;;;;;;;;5095738;28;20212;-61
2023/04/07 13:49:20;;;;;;;2.85;2.65;;;;;;;;;;5094511;28;20215;-61
2023/04/07 13:51:49;;;;;;;2.90;2.70;;;;;;;;;;5095976;28;20523;-61
2023/04/07 13:54:17;;;;;;;2.80;2.60;;;;;;;;;;5095137;28;20199;-61
2023/04/07 13:56:44;;;;;;;3.00;2.80;;;;;;;;;;5094955;28;20240;-61
2023/04/07 13:59:11;;;;;;;3.10;2.90;;;;;;;;;;5095881;28;20525;-61
2023/04/07 14:01:39;;;;;;;2.97;2.78;;;;;;;;;;5095417;28;20207;-61
2023/04/07 14:04:07;;;;;;;2.97;2.78;;;;;;;;;;5093993;28;20269;-61
2023/04/07 14:06:36;;;;;;;2.90;2.70;;;;;;;;;;5094645;28;20298;-61
2023/04/07 14:09:05;;;;;;;3.17;2.88;;;;;;;;;;5094888;28;20234;-61
2023/04/07 14:11:33;;;;;;;2.72;2.53;;;;;;;;;;5095380;28;20216;-61
2023/04/07 14:14:00;;;;;;;2.83;2.63;;;;;;;;;;5095230;28;20195;-60
2023/04/07 14:16:28;;;;;;;2.85;2.65;;;;;;;;;;5094995;28;20305;-61
2023/04/07 14:18:55;;;;;;;3.08;2.70;;;;;;;;;;5096395;28;20235;-61
2023/04/07 14:21:23;;;;;;;3.33;2.70;;;;;;;;;;5095014;28;20298;-61
2023/04/07 14:23:50;;;;;;;3.10;2.90;;;;;;;;;;5094158;28;20307;-61
2023/04/07 14:26:20;;;;;;;2.70;2.50;;;;;;;;;;5094770;28;20568;-61
2023/04/07 14:28:47;;;;;;;2.63;2.42;;;;;;;;;;5095202;28;20199;-61
2023/04/07 14:31:15;;;;;;;2.90;2.70;;;;;;;;;;5095274;28;20246;-61
2023/04/07 14:33:42;;;;;;;2.80;2.60;;;;;;;;;;5094241;28;20242;-61
2023/04/07 14:36:10;;;;;;;2.53;2.33;;;;;;;;;;5095118;28;20206;-61
2023/04/07 14:38:38;;;;;;;2.67;2.47;;;;;;;;;;5095771;28;20211;-61
2023/04/07 14:41:05;;;;;;;2.67;2.47;;;;;;;;;;5094612;28;20204;-61
2023/04/07 14:43:34;;;;;;;2.72;2.53;;;;;;;;;;5094727;28;20203;-61
2023/04/07 14:46:01;;;;;;;2.35;2.25;;;;;;;;;;5112653;28;20569;-61